createdAt,value
2023-03-30T00:02:24.008Z,25.08
2023-03-30T00:04:53.475Z,25.10
2023-03-30T00:07:22.024Z,25.13
2023-03-30T00:09:50.444Z,25.16
2023-03-30T00:12:21.552Z,25.18
2023-03-30T00:14:51.474Z,25.23
2023-03-30T00:17:19.897Z,25.28
2023-03-30T00:19:48.285Z,25.32
2023-03-30T00:22:17.080Z,25.37
2023-03-30T00:24:45.434Z,25.40
2023-03-30T00:27:13.780Z,25.45
2023-03-30T00:29:42.492Z,25.48
2023-03-30T00:32:10.973Z,25.52
2023-03-30T00:34:39.444Z,25.58
2023-03-30T00:37:07.944Z,25.63
2023-03-30T00:39:37.387Z,25.68
2023-03-30T00:42:05.877Z,25.74
2023-03-30T00:45:11.256Z,25.80
2023-03-30T00:47:49.340Z,25.85
2023-03-30T00:50:22.807Z,25.91
2023-03-30T00:52:53.926Z,25.97
2023-03-30T00:55:25.947Z,26.02
2023-03-30T00:57:55.555Z,26.07
2023-03-30T01:00:25.363Z,26.11
2023-03-30T01:03:05.795Z,26.15
2023-03-30T01:05:35.691Z,26.21
2023-03-30T01:08:08.635Z,26.28
2023-03-30T01:10:37.109Z,26.34
2023-03-30T01:13:06.362Z,26.39
2023-03-30T01:15:41.633Z,26.44
2023-03-30T01:18:26.136Z,26.52
2023-03-30T01:21:22.959Z,26.59
2023-03-30T01:23:54.097Z,26.65
2023-03-30T01:26:36.756Z,26.69
2023-03-30T01:29:17.395Z,26.75
2023-03-30T01:31:51.001Z,26.83
2023-03-30T01:34:49.673Z,26.90
2023-03-30T01:37:48.197Z,26.98
2023-03-30T01:41:03.000Z,27.05
2023-03-30T01:43:52.094Z,27.15
2023-03-30T01:46:34.283Z,27.20
2023-03-30T01:49:25.748Z,27.26
2023-03-30T01:52:06.445Z,27.33
2023-03-30T01:54:44.115Z,27.37
2023-03-30T01:57:26.423Z,27.43
2023-03-30T01:59:58.047Z,27.50
2023-03-30T02:02:32.020Z,27.60
2023-03-30T02:05:03.175Z,27.70
2023-03-30T02:07:34.091Z,27.77
2023-03-30T02:10:07.083Z,27.83
2023-03-30T02:12:37.568Z,27.89
2023-03-30T02:15:11.386Z,27.93
2023-03-30T02:17:39.847Z,27.94
2023-03-30T02:20:13.209Z,27.97
2023-03-30T02:22:41.724Z,28.00
2023-03-30T02:25:10.643Z,28.06
2023-03-30T02:27:39.549Z,28.09
2023-03-30T02:30:10.011Z,28.17
2023-03-30T02:32:49.004Z,28.25
2023-03-30T02:35:35.731Z,28.35
2023-03-30T02:38:19.145Z,28.43
2023-03-30T02:40:53.608Z,28.50
2023-03-30T02:43:31.840Z,28.53
2023-03-30T02:46:23.633Z,28.58
2023-03-30T02:49:27.264Z,28.70
2023-03-30T02:52:17.445Z,28.78
2023-03-30T02:54:57.108Z,28.82
2023-03-30T02:58:04.082Z,28.86
2023-03-30T03:00:39.122Z,28.87
2023-03-30T03:03:29.874Z,28.89
2023-03-30T03:06:03.451Z,28.90
2023-03-30T03:08:36.332Z,28.93
2023-03-30T03:11:05.675Z,28.95
2023-03-30T03:13:37.672Z,28.96
2023-03-30T03:16:08.920Z,28.99
2023-03-30T03:18:40.867Z,29.02
2023-03-30T03:21:10.886Z,29.03
2023-03-30T03:23:39.544Z,29.02
2023-03-30T03:26:08.672Z,29.01
2023-03-30T03:28:37.393Z,29.00
2023-03-30T03:31:07.538Z,29.03
2023-03-30T03:33:36.782Z,29.06
2023-03-30T03:36:06.715Z,29.14
2023-03-30T03:38:35.217Z,29.21
2023-03-30T03:41:04.233Z,29.28
2023-03-30T03:43:32.813Z,29.32
2023-03-30T03:46:01.284Z,29.39
2023-03-30T03:48:29.811Z,29.41
2023-03-30T03:51:00.214Z,29.45
2023-03-30T03:53:29.986Z,29.50
2023-03-30T03:55:58.677Z,29.52
2023-03-30T03:58:27.709Z,29.59
2023-03-30T04:01:04.199Z,29.64
2023-03-30T04:03:32.932Z,29.70
2023-03-30T04:06:03.345Z,29.79
2023-03-30T04:08:31.880Z,29.87
2023-03-30T04:11:12.765Z,29.94
2023-03-30T04:13:41.791Z,30.02
2023-03-30T04:16:11.002Z,30.08
2023-03-30T04:18:39.407Z,30.13
2023-03-30T04:21:13.900Z,30.23
2023-03-30T04:23:46.658Z,30.33
2023-03-30T04:26:15.022Z,30.45
2023-03-30T04:28:43.476Z,30.57
2023-03-30T04:31:13.803Z,30.69
2023-03-30T04:33:54.094Z,30.79
2023-03-30T04:36:22.496Z,30.86
2023-03-30T04:38:59.455Z,30.95
2023-03-30T04:41:34.293Z,31.01
2023-03-30T04:44:05.108Z,31.08
2023-03-30T04:46:34.156Z,31.16
2023-03-30T04:49:02.923Z,31.24
2023-03-30T04:51:31.649Z,31.31
2023-03-30T04:54:00.209Z,31.33
2023-03-30T04:56:28.781Z,31.33
2023-03-30T04:58:57.255Z,31.38
2023-03-30T05:01:25.733Z,31.43
2023-03-30T05:03:54.162Z,31.46
2023-03-30T05:06:22.694Z,31.50
2023-03-30T05:08:51.110Z,31.55
2023-03-30T05:11:19.576Z,31.59
2023-03-30T05:13:48.319Z,31.61
2023-03-30T05:16:17.167Z,31.63
2023-03-30T05:18:45.696Z,31.67
2023-03-30T05:21:14.137Z,31.77
2023-03-30T05:23:43.893Z,31.83
2023-03-30T05:26:12.379Z,31.88
2023-03-30T05:28:41.322Z,31.95
2023-03-30T05:31:10.135Z,32.01
2023-03-30T05:33:38.520Z,32.04
2023-03-30T05:36:07.384Z,32.10
2023-03-30T05:38:37.111Z,32.16
2023-03-30T05:41:06.405Z,32.22
2023-03-30T05:43:35.376Z,32.25
2023-03-30T05:46:04.334Z,32.27
2023-03-30T05:48:33.051Z,32.32
2023-03-30T05:51:02.603Z,32.38
2023-03-30T05:53:31.371Z,32.43
2023-03-30T05:55:59.852Z,32.50
2023-03-30T05:58:28.509Z,32.56
2023-03-30T06:00:59.929Z,32.59
2023-03-30T06:03:28.480Z,32.60
2023-03-30T06:05:57.037Z,32.63
2023-03-30T06:08:25.524Z,32.66
2023-03-30T06:10:57.885Z,32.67
2023-03-30T06:13:26.709Z,32.72
2023-03-30T06:15:55.231Z,32.75
2023-03-30T06:18:23.680Z,32.79
2023-03-30T06:20:53.286Z,32.81
2023-03-30T06:23:22.149Z,32.84
2023-03-30T06:25:53.768Z,32.87
2023-03-30T06:28:23.078Z,32.88
2023-03-30T06:30:51.833Z,32.92
2023-03-30T06:33:21.017Z,32.95
2023-03-30T06:35:52.005Z,32.99
2023-03-30T06:38:22.376Z,33.01
2023-03-30T06:40:51.930Z,33.05
2023-03-30T06:43:26.032Z,33.13
2023-03-30T06:45:57.153Z,33.18
2023-03-30T06:48:25.921Z,33.21
2023-03-30T06:50:55.311Z,33.20
2023-03-30T06:53:25.307Z,33.23
2023-03-30T06:55:59.188Z,33.27
2023-03-30T06:58:28.791Z,33.30
2023-03-30T07:00:57.797Z,33.34
2023-03-30T07:03:27.526Z,33.36
2023-03-30T07:05:56.624Z,33.35
2023-03-30T07:08:25.376Z,33.35
2023-03-30T07:10:53.855Z,33.35
2023-03-30T07:13:22.288Z,33.39
2023-03-30T07:15:50.716Z,33.39
2023-03-30T07:18:19.792Z,33.40
2023-03-30T07:20:48.395Z,33.41
2023-03-30T07:23:17.516Z,33.41
2023-03-30T07:25:47.892Z,33.43
2023-03-30T07:28:17.356Z,33.45
2023-03-30T07:30:45.988Z,33.48
2023-03-30T07:33:15.659Z,33.49
2023-03-30T07:35:48.322Z,33.54
2023-03-30T07:38:17.104Z,33.55
2023-03-30T07:40:45.607Z,33.57
2023-03-30T07:43:14.059Z,33.57
2023-03-30T07:45:42.651Z,33.58
2023-03-30T07:48:11.160Z,33.58
2023-03-30T07:50:39.624Z,33.61
2023-03-30T07:53:08.188Z,33.63
2023-03-30T07:55:37.008Z,33.64
2023-03-30T07:58:05.495Z,33.61
2023-03-30T08:00:34.121Z,33.57
2023-03-30T08:03:02.901Z,33.56
2023-03-30T08:05:32.061Z,33.55
2023-03-30T08:08:00.516Z,33.53
2023-03-30T08:10:29.161Z,33.50
2023-03-30T08:12:57.742Z,33.48
2023-03-30T08:15:26.366Z,33.46
2023-03-30T08:17:55.109Z,33.49
2023-03-30T08:20:23.605Z,33.48
2023-03-30T08:22:52.567Z,33.48
2023-03-30T08:25:21.011Z,33.47
2023-03-30T08:27:49.465Z,33.45
2023-03-30T08:30:17.983Z,33.42
2023-03-30T08:32:46.506Z,33.39
2023-03-30T08:35:15.199Z,33.39
2023-03-30T08:37:43.640Z,33.37
2023-03-30T08:40:19.201Z,33.35
2023-03-30T08:43:18.833Z,33.32
2023-03-30T08:45:47.682Z,33.30
2023-03-30T08:48:23.118Z,33.29
2023-03-30T08:51:25.720Z,33.28
2023-03-30T08:54:02.477Z,33.27
2023-03-30T08:56:58.381Z,33.24
2023-03-30T08:59:35.919Z,33.25
2023-03-30T09:02:09.955Z,33.21
2023-03-30T09:04:50.201Z,33.19
2023-03-30T09:07:20.421Z,33.14
2023-03-30T09:09:52.776Z,33.13
2023-03-30T09:12:24.312Z,33.11
2023-03-30T09:15:04.282Z,33.12
2023-03-30T09:17:47.112Z,33.11
2023-03-30T09:20:29.491Z,33.10
2023-03-30T09:23:04.823Z,33.09
2023-03-30T09:25:52.403Z,33.08
2023-03-30T09:28:26.916Z,33.04
2023-03-30T09:31:04.258Z,33.01
2023-03-30T09:33:50.791Z,32.98
2023-03-30T09:36:24.627Z,32.94
2023-03-30T09:38:53.754Z,32.92
2023-03-30T09:41:40.407Z,32.88
2023-03-30T09:44:20.136Z,32.83
2023-03-30T09:46:53.727Z,32.80
2023-03-30T09:49:22.213Z,32.74
2023-03-30T09:52:20.797Z,32.70
2023-03-30T09:54:49.330Z,32.62
2023-03-30T09:57:29.917Z,32.57
2023-03-30T10:00:00.914Z,32.51
2023-03-30T10:02:32.266Z,32.48
2023-03-30T10:05:03.283Z,32.46
2023-03-30T10:07:42.677Z,32.41
2023-03-30T10:10:41.140Z,32.37
2023-03-30T10:13:12.632Z,32.33
2023-03-30T10:15:45.171Z,32.27
2023-03-30T10:18:25.902Z,32.21
2023-03-30T10:21:02.577Z,32.17
2023-03-30T10:23:43.527Z,32.11
2023-03-30T10:26:16.993Z,32.05
2023-03-30T10:29:07.030Z,32.01
2023-03-30T10:31:38.037Z,31.95
2023-03-30T10:34:15.819Z,31.90
2023-03-30T10:36:44.992Z,31.83
2023-03-30T10:39:23.596Z,31.78
2023-03-30T10:41:53.866Z,31.74
2023-03-30T10:44:43.927Z,31.69
2023-03-30T10:47:49.743Z,31.63
2023-03-30T10:50:25.116Z,31.58
2023-03-30T10:53:17.731Z,31.53
2023-03-30T10:56:13.303Z,31.47
2023-03-30T10:59:03.039Z,31.40
2023-03-30T11:01:39.932Z,31.33
2023-03-30T11:04:23.739Z,31.26
2023-03-30T11:06:56.887Z,31.20
2023-03-30T11:09:31.831Z,31.13
2023-03-30T11:12:23.144Z,31.03
2023-03-30T11:14:59.048Z,30.97
2023-03-30T11:17:35.369Z,30.91
2023-03-30T11:20:28.277Z,30.85
2023-03-30T11:23:01.555Z,30.79
2023-03-30T11:25:53.134Z,30.71
2023-03-30T11:28:44.682Z,30.66
2023-03-30T11:31:32.332Z,30.60
2023-03-30T11:34:27.193Z,30.53
2023-03-30T11:37:10.933Z,30.47
2023-03-30T11:39:47.221Z,30.41
2023-03-30T11:42:24.360Z,30.36
2023-03-30T11:44:53.349Z,30.32
2023-03-30T11:47:42.652Z,30.28
2023-03-30T11:50:38.712Z,30.23
2023-03-30T11:53:15.858Z,30.18
2023-03-30T11:55:47.383Z,30.13
2023-03-30T11:58:38.196Z,30.09
2023-03-30T12:01:27.302Z,30.05
2023-03-30T12:04:12.742Z,29.98
2023-03-30T12:06:58.486Z,29.93
2023-03-30T12:09:39.801Z,29.88
2023-03-30T12:12:16.649Z,29.85
2023-03-30T12:14:48.159Z,29.83
2023-03-30T12:17:26.843Z,29.79
2023-03-30T12:20:07.994Z,29.77
2023-03-30T12:22:44.920Z,29.75
2023-03-30T12:25:25.115Z,29.72
2023-03-30T12:28:01.416Z,29.67
2023-03-30T12:30:55.990Z,29.63
2023-03-30T12:33:35.337Z,29.58
2023-03-30T12:36:27.277Z,29.54
2023-03-30T12:39:03.319Z,29.51
2023-03-30T12:41:43.016Z,29.49
2023-03-30T12:44:36.734Z,29.45
2023-03-30T12:47:48.245Z,29.42
2023-03-30T12:50:31.581Z,29.40
2023-03-30T12:53:18.196Z,29.37
2023-03-30T12:55:55.824Z,29.35
2023-03-30T12:58:38.577Z,29.34
2023-03-30T13:01:37.886Z,29.32
2023-03-30T13:04:28.501Z,29.28
2023-03-30T13:07:05.064Z,29.24
2023-03-30T13:09:36.996Z,29.21
2023-03-30T13:12:05.358Z,29.20
2023-03-30T13:14:37.377Z,29.19
2023-03-30T13:17:07.246Z,29.16
2023-03-30T13:19:38.120Z,29.17
2023-03-30T13:22:12.991Z,29.14
2023-03-30T13:24:45.925Z,29.12
2023-03-30T13:27:20.188Z,29.12
2023-03-30T13:30:11.402Z,29.11
2023-03-30T13:33:13.323Z,29.10
2023-03-30T13:35:44.332Z,29.06
2023-03-30T13:38:37.479Z,29.01
2023-03-30T13:41:36.132Z,28.97
2023-03-30T13:44:22.733Z,28.95
2023-03-30T13:46:55.369Z,28.92
2023-03-30T13:49:39.445Z,28.92
2023-03-30T13:52:19.530Z,28.89
2023-03-30T13:54:48.628Z,28.86
2023-03-30T13:57:29.554Z,28.83
2023-03-30T14:00:09.153Z,28.79
2023-03-30T14:02:42.107Z,28.76
2023-03-30T14:05:28.766Z,28.73
2023-03-30T14:08:00.808Z,28.70
2023-03-30T14:10:29.424Z,28.66
2023-03-30T14:12:59.181Z,28.63
2023-03-30T14:15:34.851Z,28.61
2023-03-30T14:18:05.717Z,28.59
2023-03-30T14:20:54.102Z,28.56
2023-03-30T14:23:36.556Z,28.55
2023-03-30T14:26:17.833Z,28.55
2023-03-30T14:28:47.913Z,28.55
2023-03-30T14:31:20.025Z,28.56
2023-03-30T14:33:49.132Z,28.54
2023-03-30T14:36:21.467Z,28.52
2023-03-30T14:38:52.631Z,28.49
2023-03-30T14:41:28.848Z,28.47
2023-03-30T14:44:03.144Z,28.47
2023-03-30T14:46:43.373Z,28.46
2023-03-30T14:49:22.388Z,28.46
2023-03-30T14:52:01.859Z,28.45
2023-03-30T14:54:32.293Z,28.44
2023-03-30T14:57:04.382Z,28.45
2023-03-30T14:59:39.234Z,28.44
2023-03-30T15:02:30.162Z,28.44
2023-03-30T15:05:00.263Z,28.43
2023-03-30T15:07:33.366Z,28.42
2023-03-30T15:10:02.498Z,28.41
2023-03-30T15:12:42.297Z,28.39
2023-03-30T15:15:15.185Z,28.38
2023-03-30T15:17:50.492Z,28.37
2023-03-30T15:20:19.883Z,28.37
2023-03-30T15:22:52.820Z,28.36
2023-03-30T15:25:25.192Z,28.34
2023-03-30T15:28:00.484Z,28.32
2023-03-30T15:30:34.292Z,28.29
2023-03-30T15:33:03.674Z,28.26
2023-03-30T15:35:39.252Z,28.23
2023-03-30T15:38:17.062Z,28.20
2023-03-30T15:40:48.928Z,28.14
2023-03-30T15:43:18.890Z,28.10
2023-03-30T15:46:02.076Z,28.06
2023-03-30T15:48:37.181Z,28.02
2023-03-30T15:51:23.898Z,28.00
2023-03-30T15:53:55.839Z,27.96
2023-03-30T15:56:36.267Z,27.92
2023-03-30T15:59:05.815Z,27.89
2023-03-30T16:01:55.802Z,27.87
2023-03-30T16:04:26.246Z,27.84
2023-03-30T16:06:55.024Z,27.82
2023-03-30T16:09:24.120Z,27.82
2023-03-30T16:11:52.642Z,27.81
2023-03-30T16:14:22.418Z,27.82
2023-03-30T16:16:50.858Z,27.83
2023-03-30T16:19:20.907Z,27.82
2023-03-30T16:21:49.449Z,27.79
2023-03-30T16:24:18.171Z,27.77
2023-03-30T16:26:47.737Z,27.73
2023-03-30T16:29:25.145Z,27.71
2023-03-30T16:31:54.226Z,27.68
2023-03-30T16:34:23.080Z,27.65
2023-03-30T16:36:51.906Z,27.61
2023-03-30T16:39:29.360Z,27.58
2023-03-30T16:41:58.159Z,27.57
2023-03-30T16:44:26.900Z,27.51
2023-03-30T16:46:55.281Z,27.48
2023-03-30T16:49:26.564Z,27.46
2023-03-30T16:51:58.010Z,27.45
2023-03-30T16:54:32.602Z,27.44
2023-03-30T16:57:02.809Z,27.43
2023-03-30T16:59:33.230Z,27.41
2023-03-30T17:02:01.974Z,27.40
2023-03-30T17:04:30.429Z,27.39
2023-03-30T17:06:58.825Z,27.39
2023-03-30T17:09:28.168Z,27.39
2023-03-30T17:11:56.529Z,27.38
2023-03-30T17:14:25.319Z,27.36
2023-03-30T17:16:53.773Z,27.34
2023-03-30T17:19:22.587Z,27.31
2023-03-30T17:21:51.208Z,27.28
2023-03-30T17:24:19.787Z,27.27
2023-03-30T17:26:48.203Z,27.24
2023-03-30T17:29:16.549Z,27.22
2023-03-30T17:31:46.463Z,27.20
2023-03-30T17:34:15.639Z,27.18
2023-03-30T17:36:44.162Z,27.16
2023-03-30T17:39:16.301Z,27.15
2023-03-30T17:41:44.755Z,27.11
2023-03-30T17:44:13.219Z,27.12
2023-03-30T17:46:43.785Z,27.12
2023-03-30T17:49:21.308Z,27.12
2023-03-30T17:51:49.743Z,27.11
2023-03-30T17:54:21.153Z,27.09
2023-03-30T17:56:49.552Z,27.07
2023-03-30T17:59:19.085Z,27.05
2023-03-30T18:01:47.523Z,27.02
2023-03-30T18:04:15.968Z,27.01
2023-03-30T18:06:44.382Z,27.00
2023-03-30T18:09:20.185Z,27.00
2023-03-30T18:11:48.589Z,26.98
2023-03-30T18:14:17.270Z,26.98
2023-03-30T18:16:45.919Z,26.96
2023-03-30T18:19:14.523Z,26.95
2023-03-30T18:21:42.856Z,26.91
2023-03-30T18:24:11.227Z,26.89
2023-03-30T18:26:41.934Z,26.86
2023-03-30T18:29:23.422Z,26.86
2023-03-30T18:31:51.969Z,26.84
2023-03-30T18:34:20.566Z,26.82
2023-03-30T18:36:49.008Z,26.80
2023-03-30T18:39:23.347Z,26.79
2023-03-30T18:41:52.604Z,26.77
2023-03-30T18:44:21.502Z,26.74
2023-03-30T18:46:54.986Z,26.72
2023-03-30T18:49:24.723Z,26.70
2023-03-30T18:51:53.975Z,26.68
2023-03-30T18:54:22.344Z,26.65
2023-03-30T18:56:50.771Z,26.65
2023-03-30T18:59:23.854Z,26.64
2023-03-30T19:01:52.502Z,26.63
2023-03-30T19:04:21.123Z,26.62
2023-03-30T19:06:49.707Z,26.61
2023-03-30T19:09:18.501Z,26.61
2023-03-30T19:11:48.113Z,26.59
2023-03-30T19:14:16.604Z,26.58
2023-03-30T19:16:45.008Z,26.58
2023-03-30T19:19:15.549Z,26.58
2023-03-30T19:21:44.265Z,26.57
2023-03-30T19:24:14.820Z,26.56
2023-03-30T19:26:43.243Z,26.54
2023-03-30T19:29:11.921Z,26.53
2023-03-30T19:31:40.402Z,26.53
2023-03-30T19:34:08.839Z,26.52
2023-03-30T19:36:37.411Z,26.52
2023-03-30T19:39:05.851Z,26.52
2023-03-30T19:41:34.249Z,26.52
2023-03-30T19:44:02.608Z,26.50
2023-03-30T19:46:31.304Z,26.50
2023-03-30T19:48:59.913Z,26.49
2023-03-30T19:51:28.288Z,26.49
2023-03-30T19:53:58.628Z,26.48
2023-03-30T19:56:27.685Z,26.48
2023-03-30T19:58:56.158Z,26.48
2023-03-30T20:01:24.540Z,26.47
2023-03-30T20:03:53.164Z,26.44
2023-03-30T20:06:21.844Z,26.43
2023-03-30T20:08:50.227Z,26.42
2023-03-30T20:11:18.792Z,26.38
2023-03-30T20:13:48.289Z,26.37
2023-03-30T20:16:26.826Z,26.34
2023-03-30T20:18:57.662Z,26.32
2023-03-30T20:21:27.928Z,26.30
2023-03-30T20:23:59.433Z,26.28
2023-03-30T20:26:31.859Z,26.27
2023-03-30T20:29:01.745Z,26.24
2023-03-30T20:31:30.905Z,26.21
2023-03-30T20:33:59.801Z,26.18
2023-03-30T20:36:29.720Z,26.16
2023-03-30T20:39:02.031Z,26.13
2023-03-30T20:41:38.981Z,26.12
2023-03-30T20:44:15.195Z,26.09
2023-03-30T20:46:44.346Z,26.07
2023-03-30T20:49:13.963Z,26.07
2023-03-30T20:51:44.223Z,26.05
2023-03-30T20:54:12.676Z,26.05
2023-03-30T20:56:42.025Z,26.05
2023-03-30T20:59:10.622Z,26.05
2023-03-30T21:01:42.378Z,26.03
2023-03-30T21:04:10.955Z,26.03
2023-03-30T21:06:39.409Z,26.03
2023-03-30T21:09:09.514Z,26.03
2023-03-30T21:11:42.163Z,26.03
2023-03-30T21:14:13.626Z,26.02
2023-03-30T21:16:45.686Z,26.01
2023-03-30T21:19:14.211Z,26.01
2023-03-30T21:21:42.772Z,26.01
2023-03-30T21:24:12.687Z,26.00
2023-03-30T21:26:41.855Z,25.99
2023-03-30T21:29:10.388Z,25.98
2023-03-30T21:31:38.964Z,25.98
2023-03-30T21:34:09.994Z,25.96
2023-03-30T21:36:38.712Z,25.95
2023-03-30T21:39:07.421Z,25.94
2023-03-30T21:41:35.871Z,25.93
2023-03-30T21:44:04.328Z,25.91
2023-03-30T21:46:32.774Z,25.89
2023-03-30T21:49:03.445Z,25.86
2023-03-30T21:51:32.801Z,25.84
2023-03-30T21:54:01.557Z,25.84
2023-03-30T21:56:32.117Z,25.82
2023-03-30T21:59:00.957Z,25.79
2023-03-30T22:01:29.792Z,25.76
2023-03-30T22:03:58.358Z,25.74
2023-03-30T22:06:27.107Z,25.72
2023-03-30T22:08:55.751Z,25.71
2023-03-30T22:11:28.039Z,25.69
2023-03-30T22:13:56.825Z,25.68
2023-03-30T22:16:29.176Z,25.67
2023-03-30T22:18:57.617Z,25.67
2023-03-30T22:21:35.001Z,25.65
2023-03-30T22:24:05.399Z,25.63
2023-03-30T22:26:34.671Z,25.61
2023-03-30T22:29:06.340Z,25.60
2023-03-30T22:31:34.889Z,25.59
2023-03-30T22:34:04.180Z,25.58
2023-03-30T22:36:33.131Z,25.56
2023-03-30T22:39:03.363Z,25.55
2023-03-30T22:41:32.573Z,25.53
2023-03-30T22:44:01.067Z,25.52
2023-03-30T22:46:29.743Z,25.50
2023-03-30T22:48:58.299Z,25.49
2023-03-30T22:51:27.242Z,25.47
2023-03-30T22:54:00.696Z,25.46
2023-03-30T22:56:31.814Z,25.44
2023-03-30T22:59:02.164Z,25.43
2023-03-30T23:01:32.941Z,25.42
2023-03-30T23:04:01.890Z,25.40
2023-03-30T23:06:30.612Z,25.40
2023-03-30T23:08:59.560Z,25.38
2023-03-30T23:11:29.993Z,25.37
2023-03-30T23:13:58.485Z,25.36
2023-03-30T23:16:28.662Z,25.36
2023-03-30T23:18:57.414Z,25.36
2023-03-30T23:21:25.863Z,25.36
2023-03-30T23:23:54.385Z,25.36
2023-03-30T23:26:22.818Z,25.36
2023-03-30T23:28:51.243Z,25.36
2023-03-30T23:31:19.938Z,25.36
2023-03-30T23:33:48.435Z,25.38
2023-03-30T23:36:20.092Z,25.38
2023-03-30T23:38:49.393Z,25.39
2023-03-30T23:41:19.778Z,25.41
2023-03-30T23:43:48.991Z,25.42
2023-03-30T23:46:17.756Z,25.44
2023-03-30T23:48:47.311Z,25.47
2023-03-30T23:51:15.812Z,25.50
2023-03-30T23:53:44.292Z,25.52
2023-03-30T23:56:18.014Z,25.54
2023-03-30T23:58:46.706Z,25.57
